Time;durP1;ratioP1;P1;durP2;ratioP2;P2;SDS_P1;SDS_P2;PMS_P1;PMS_P2;Temp;Humidity;BMP_temperature;BMP_pressure;BME280_temperature;BME280_humidity;BME280_pressure;Samples;Min_cycle;Max_cycle;Signal;HPM_P1;HPM_P2
2021/03/23 00:01:15;;;;;;;5.20;1.95;;;20.50;95.00;;;;;;5071811;28;20028;-60
2021/03/23 00:03:49;;;;;;;4.38;1.13;;;20.50;95.00;;;;;;5071954;28;20047;-62
2021/03/23 00:06:20;;;;;;;3.67;1.20;;;20.50;94.90;;;;;;5071245;28;20498;-65
2021/03/23 00:09:09;;;;;;;6.13;1.70;;;20.50;95.00;;;;;;5071595;28;20056;-61
2021/03/23 00:11:40;;;;;;;3.67;1.17;;;20.50;95.00;;;;;;5070957;28;20060;-61
2021/03/23 00:14:11;;;;;;;4.68;1.70;;;20.50;95.00;;;;;;5071499;28;20040;-63
2021/03/23 00:16:41;;;;;;;5.00;1.40;;;20.50;95.00;;;;;;5071159;28;20029;-63
2021/03/23 00:19:09;;;;;;;6.72;1.45;;;20.50;95.00;;;;;;5072188;28;20028;-63
2021/03/23 00:21:36;;;;;;;4.25;1.10;;;20.50;95.00;;;;;;5071388;28;20100;-65
2021/03/23 00:24:04;;;;;;;5.43;1.70;;;20.50;95.00;;;;;;5071755;28;20050;-65
2021/03/23 00:26:32;;;;;;;4.80;1.50;;;20.50;95.00;;;;;;5071624;28;20475;-67
2021/03/23 00:29:00;;;;;;;8.55;1.77;;;20.50;95.00;;;;;;5071987;28;20131;-65
2021/03/23 00:31:32;;;;;;;5.95;1.85;;;20.50;95.00;;;;;;5071681;28;20040;-63
2021/03/23 00:34:04;;;;;;;5.55;1.67;;;20.50;95.00;;;;;;5071476;28;20093;-61
2021/03/23 00:36:39;;;;;;;6.70;1.50;;;20.50;95.00;;;;;;5071851;28;20016;-58
2021/03/23 00:39:08;;;;;;;6.40;1.77;;;20.50;95.00;;;;;;5071006;28;20351;-64
2021/03/23 00:41:39;;;;;;;7.35;1.65;;;20.50;95.00;;;;;;5054027;28;20020;-62
2021/03/23 00:44:09;;;;;;;5.30;1.75;;;20.50;95.00;;;;;;5071875;28;20028;-66
2021/03/23 00:46:37;;;;;;;4.90;1.80;;;20.50;95.00;;;;;;5071321;28;20475;-63
2021/03/23 00:49:06;;;;;;;6.10;1.50;;;20.50;95.20;;;;;;5071297;28;20029;-64
2021/03/23 00:51:34;;;;;;;6.53;2.08;;;20.50;95.10;;;;;;5042129;28;20510;-57
2021/03/23 00:54:01;;;;;;;6.22;1.38;;;20.50;95.10;;;;;;5068749;28;20047;-59
2021/03/23 00:56:29;;;;;;;6.35;1.83;;;20.50;95.10;;;;;;5068805;28;20031;-61
2021/03/23 00:58:56;;;;;;;8.57;1.70;;;20.50;95.10;;;;;;5069560;28;20135;-60
2021/03/23 01:01:24;;;;;;;6.35;1.90;;;20.50;95.10;;;;;;5068773;28;20031;-56
2021/03/23 01:03:51;;;;;;;7.32;1.73;;;20.60;95.10;;;;;;5064890;28;20151;-60
2021/03/23 01:06:18;;;;;;;5.10;1.55;;;20.50;95.30;;;;;;5069225;28;20075;-58
2021/03/23 01:11:55;;;;;;;6.30;1.55;;;20.60;95.00;;;;;;5068648;28;20454;-59
2021/03/23 01:14:23;;;;;;;8.20;1.83;;;20.60;95.00;;;;;;5073520;28;20075;-58
2021/03/23 01:16:50;;;;;;;6.05;1.65;;;20.60;95.00;;;;;;5072596;28;20044;-60
2021/03/23 01:19:18;;;;;;;6.40;1.80;;;20.70;95.00;;;;;;5056002;28;20108;-62
2021/03/23 01:21:45;;;;;;;6.25;1.70;;;20.70;94.90;;;;;;5069011;28;20035;-61
2021/03/23 01:24:12;;;;;;;6.03;1.67;;;20.70;94.90;;;;;;5072407;28;20433;-58
2021/03/23 01:26:40;;;;;;;6.78;1.63;;;20.70;94.90;;;;;;5073520;28;20059;-61
2021/03/23 01:29:08;;;;;;;5.65;2.28;;;20.70;94.80;;;;;;5072964;28;20025;-64
2021/03/23 01:31:36;;;;;;;6.35;1.45;;;20.70;94.80;;;;;;5070219;28;20124;-62
2021/03/23 01:34:05;;;;;;;4.53;1.50;;;20.70;94.80;;;;;;5070325;28;20454;-63
2021/03/23 01:36:32;;;;;;;4.70;1.50;;;20.70;94.80;;;;;;5072702;28;20050;-61
2021/03/23 01:39:00;;;;;;;5.85;1.73;;;20.70;94.80;;;;;;5072242;28;20021;-58
2021/03/23 01:41:28;;;;;;;6.68;1.95;;;20.80;94.80;;;;;;5071054;28;20029;-59
2021/03/23 01:43:55;;;;;;;5.75;1.55;;;20.80;94.80;;;;;;5066722;28;20090;-59
2021/03/23 01:46:48;;;;;;;8.85;1.92;;;20.80;94.70;;;;;;5072784;28;20131;-58
2021/03/23 01:49:27;;;;;;;7.90;2.05;;;20.80;94.70;;;;;;5053006;28;20479;-58
2021/03/23 01:51:59;;;;;;;6.22;1.48;;;20.80;94.80;;;;;;5067558;28;20041;-62
2021/03/23 01:54:35;;;;;;;7.50;2.38;;;20.80;94.80;;;;;;5072592;28;20041;-59
2021/03/23 01:57:07;;;;;;;7.80;1.70;;;20.70;94.80;;;;;;5072606;28;20095;-60
2021/03/23 01:59:39;;;;;;;6.43;1.38;;;20.70;94.80;;;;;;5071597;28;20525;-58
2021/03/23 02:02:06;;;;;;;8.70;1.80;;;20.70;94.80;;;;;;5067427;28;20033;-60
2021/03/23 02:04:34;;;;;;;6.32;1.90;;;20.70;94.80;;;;;;5072767;28;20020;-61
2021/03/23 02:07:02;;;;;;;5.97;1.63;;;20.70;94.80;;;;;;5069394;28;20075;-58
2021/03/23 02:09:35;;;;;;;6.95;1.50;;;20.70;94.80;;;;;;5071715;28;20112;-61
2021/03/23 02:12:15;;;;;;;5.43;1.63;;;20.70;94.90;;;;;;5066955;28;20052;-57
2021/03/23 02:14:45;;;;;;;3.13;1.08;;;20.60;94.90;;;;;;5070373;28;20093;-59
2021/03/23 02:17:29;;;;;;;4.90;1.50;;;20.60;94.90;;;;;;5072350;28;20038;-61
2021/03/23 02:20:18;;;;;;;4.82;1.35;;;20.70;94.90;;;;;;5070565;28;20035;-63
2021/03/23 02:22:50;;;;;;;8.55;2.22;;;20.70;94.90;;;;;;5073380;28;20637;-60
2021/03/23 02:25:21;;;;;;;9.65;1.77;;;20.60;94.90;;;;;;5068171;28;20050;-56
2021/03/23 02:27:49;;;;;;;6.30;1.80;;;20.60;94.90;;;;;;5068654;28;20118;-60
2021/03/23 02:30:40;;;;;;;8.35;1.83;;;20.60;95.00;;;;;;5072449;28;20020;-63
2021/03/23 02:33:08;;;;;;;11.18;2.40;;;20.70;95.00;;;;;;5058556;28;20041;-67
2021/03/23 02:35:37;;;;;;;4.22;1.10;;;20.70;95.00;;;;;;5072509;28;20036;-62
2021/03/23 02:38:05;;;;;;;4.45;1.45;;;20.70;95.00;;;;;;5070426;28;20028;-62
2021/03/23 02:40:36;;;;;;;6.25;2.00;;;20.70;95.00;;;;;;5072208;28;20044;-59
2021/03/23 02:43:08;;;;;;;4.70;1.30;;;20.70;94.90;;;;;;5055096;28;20024;-63
2021/03/23 02:45:37;;;;;;;5.35;1.25;;;20.70;95.00;;;;;;5056150;28;20016;-65
2021/03/23 02:48:04;;;;;;;5.57;1.45;;;20.80;94.90;;;;;;5035852;28;20044;-64
2021/03/23 02:50:32;;;;;;;5.68;1.60;;;20.70;94.90;;;;;;5071437;28;20450;-62
2021/03/23 02:52:59;;;;;;;6.75;2.17;;;20.80;94.90;;;;;;5072484;28;20032;-64
2021/03/23 02:55:30;;;;;;;4.55;1.27;;;20.80;94.80;;;;;;5037664;28;20020;-64
2021/03/23 02:57:57;;;;;;;5.75;1.88;;;20.80;94.80;;;;;;5067676;28;20364;-65
2021/03/23 03:00:25;;;;;;;6.75;1.65;;;20.80;94.80;;;;;;5072509;28;20099;-69
2021/03/23 03:02:52;;;;;;;4.68;1.55;;;20.80;94.80;;;;;;5071038;28;20037;-67
2021/03/23 03:05:23;;;;;;;5.88;1.38;;;20.90;94.70;;;;;;5070730;28;20075;-62
2021/03/23 03:07:50;;;;;;;4.95;1.33;;;20.90;94.80;;;;;;5067875;28;20396;-66
2021/03/23 03:10:18;;;;;;;8.20;1.77;;;20.90;94.70;;;;;;5071936;28;20029;-60
2021/03/23 03:12:45;;;;;;;3.60;1.23;;;20.90;94.70;;;;;;5069500;28;20122;-54
2021/03/23 03:15:13;;;;;;;3.47;1.00;;;20.90;94.70;;;;;;5070723;28;20037;-68
2021/03/23 03:17:40;;;;;;;4.55;1.38;;;20.90;94.60;;;;;;5066931;28;20029;-67
2021/03/23 03:20:10;;;;;;;6.05;1.50;;;20.90;94.60;;;;;;5072205;28;20024;-69
2021/03/23 03:22:37;;;;;;;3.28;1.10;;;20.90;94.60;;;;;;5072746;28;20025;-69
2021/03/23 03:25:07;;;;;;;4.22;1.60;;;20.90;94.60;;;;;;5072911;28;20048;-62
2021/03/23 03:27:34;;;;;;;5.07;1.40;;;20.90;94.60;;;;;;5072635;28;20455;-63
2021/03/23 03:30:05;;;;;;;7.97;2.40;;;20.90;94.60;;;;;;5072841;28;20539;-62
2021/03/23 03:32:32;;;;;;;3.65;1.25;;;20.90;94.60;;;;;;5072858;28;20094;-63
2021/03/23 03:35:00;;;;;;;2.40;1.10;;;20.90;94.60;;;;;;5072527;28;20036;-61
2021/03/23 03:37:27;;;;;;;3.55;1.10;;;20.90;94.60;;;;;;5071978;28;20032;-63
2021/03/23 03:39:54;;;;;;;5.70;1.45;;;20.90;94.60;;;;;;5071907;28;20094;-67
2021/03/23 03:42:22;;;;;;;3.42;1.23;;;20.90;94.60;;;;;;5072761;28;20024;-62
2021/03/23 03:44:49;;;;;;;2.88;1.08;;;20.90;94.60;;;;;;5071924;28;20087;-66
2021/03/23 03:47:17;;;;;;;3.90;1.13;;;20.90;94.60;;;;;;5072303;28;20043;-61
2021/03/23 03:49:44;;;;;;;4.95;1.48;;;20.90;94.70;;;;;;5071519;28;20021;-62
2021/03/23 03:52:11;;;;;;;4.88;1.42;;;20.90;94.70;;;;;;5072768;28;20048;-64
2021/03/23 03:54:39;;;;;;;3.55;1.17;;;20.80;94.60;;;;;;5072154;28;20024;-66
2021/03/23 03:57:06;;;;;;;5.93;1.58;;;20.90;94.70;;;;;;5072980;28;20021;-65
2021/03/23 03:59:34;;;;;;;3.92;1.13;;;20.90;94.70;;;;;;5072359;28;20029;-67
2021/03/23 04:02:01;;;;;;;3.17;1.30;;;20.80;94.70;;;;;;5072706;28;20071;-61
2021/03/23 04:04:29;;;;;;;3.88;1.30;;;20.80;94.70;;;;;;5071982;28;20031;-62
2021/03/23 04:06:56;;;;;;;1.58;1.10;;;20.80;94.80;;;;;;5088203;28;20055;-60
2021/03/23 04:09:23;;;;;;;3.05;1.23;;;20.80;94.80;;;;;;5092351;28;20048;-61
2021/03/23 04:11:51;;;;;;;4.38;1.15;;;20.90;94.80;;;;;;5092074;28;20036;-63
2021/03/23 04:14:18;;;;;;;2.55;0.80;;;20.90;94.90;;;;;;5074432;28;20047;-66
2021/03/23 04:16:46;;;;;;;2.75;1.02;;;20.90;94.90;;;;;;5092697;28;20110;-62
2021/03/23 04:19:13;;;;;;;4.43;1.15;;;20.90;94.90;;;;;;5092410;28;20028;-65
2021/03/23 04:21:41;;;;;;;3.60;1.17;;;20.90;94.90;;;;;;5091863;28;20046;-61
2021/03/23 04:24:08;;;;;;;4.15;1.50;;;20.90;94.80;;;;;;5092585;28;20020;-63
2021/03/23 04:26:36;;;;;;;4.32;1.73;;;20.90;94.90;;;;;;5092122;28;20028;-59
2021/03/23 04:29:03;;;;;;;3.17;1.30;;;20.90;94.90;;;;;;5091970;28;20020;-60
2021/03/23 04:31:37;;;;;;;3.58;1.50;;;21.00;94.80;;;;;;5091394;28;20034;-65
2021/03/23 04:34:06;;;;;;;3.50;1.20;;;21.00;94.70;;;;;;5092297;28;20115;-64
2021/03/23 04:36:35;;;;;;;4.25;1.40;;;21.00;94.70;;;;;;5073628;28;20099;-69
2021/03/23 04:39:05;;;;;;;3.00;1.25;;;21.00;94.70;;;;;;5091828;28;20028;-61
2021/03/23 04:41:33;;;;;;;4.00;1.20;;;21.00;94.50;;;;;;5092754;28;20024;-65
2021/03/23 04:44:00;;;;;;;2.08;1.15;;;21.00;94.60;;;;;;5095734;28;20494;-63
2021/03/23 04:46:29;;;;;;;6.68;1.27;;;21.00;94.50;;;;;;5078683;28;20073;-65
2021/03/23 04:48:58;;;;;;;3.33;1.17;;;21.00;94.60;;;;;;5096007;28;20070;-62
2021/03/23 04:51:28;;;;;;;2.63;0.88;;;21.10;94.50;;;;;;5096251;28;20027;-64
2021/03/23 04:54:00;;;;;;;2.95;0.80;;;21.10;94.70;;;;;;5096628;28;20052;-57
2021/03/23 04:56:39;;;;;;;2.38;0.95;;;21.10;94.40;;;;;;5096393;28;20425;-63
2021/03/23 04:59:10;;;;;;;4.97;1.38;;;21.10;94.50;;;;;;5095005;28;20126;-58
2021/03/23 05:01:40;;;;;;;1.67;1.43;;;21.10;94.40;;;;;;5095991;28;20062;-54
2021/03/23 05:04:12;;;;;;;5.35;1.52;;;21.10;94.40;;;;;;5096442;28;20260;-66
2021/03/23 05:06:40;;;;;;;3.90;1.25;;;21.10;94.40;;;;;;5096066;28;20533;-64
2021/03/23 05:09:08;;;;;;;4.45;1.42;;;21.10;94.50;;;;;;5096080;28;20028;-64
2021/03/23 05:11:39;;;;;;;2.88;1.05;;;21.10;94.40;;;;;;5095262;28;20542;-63
2021/03/23 05:14:15;;;;;;;3.42;1.13;;;21.20;94.30;;;;;;5079000;28;20036;-63
2021/03/23 05:16:45;;;;;;;6.45;1.25;;;21.20;94.30;;;;;;5096197;28;20024;-61
2021/03/23 05:19:13;;;;;;;8.57;2.00;;;21.20;94.40;;;;;;5095623;28;20024;-66
2021/03/23 05:21:40;;;;;;;6.40;1.50;;;21.20;94.90;;;;;;5085461;28;20035;-62
2021/03/23 05:24:10;;;;;;;3.67;1.35;;;21.20;94.50;;;;;;5072692;28;20016;-64
2021/03/23 05:26:37;;;;;;;3.40;1.33;;;21.20;94.40;;;;;;5073619;28;20028;-64
2021/03/23 05:29:05;;;;;;;3.17;2.10;;;21.20;94.40;;;;;;5072854;28;20032;-62
2021/03/23 05:31:33;;;;;;;10.32;6.05;;;21.20;94.30;;;;;;5070612;28;20382;-60
2021/03/23 05:34:00;;;;;;;10.85;7.25;;;21.20;94.30;;;;;;5072404;28;20070;-64
2021/03/23 05:36:28;;;;;;;10.98;6.57;;;21.20;94.40;;;;;;5072810;28;20020;-64
2021/03/23 05:38:55;;;;;;;6.15;4.57;;;21.20;94.30;;;;;;5072812;28;20020;-66
2021/03/23 05:42:06;;;;;;;7.20;4.22;;;21.20;94.30;;;;;;5068028;28;20440;-62
2021/03/23 05:44:51;;;;;;;6.28;4.38;;;21.20;94.40;;;;;;5069681;28;20028;-61
2021/03/23 05:47:25;;;;;;;7.38;5.82;;;21.20;94.40;;;;;;5069223;28;20481;-63
2021/03/23 05:50:11;;;;;;;11.05;7.00;;;21.30;94.40;;;;;;5069910;28;20029;-66
2021/03/23 05:52:52;;;;;;;9.85;6.13;;;21.20;94.40;;;;;;5073075;28;20041;-62
2021/03/23 05:55:40;;;;;;;9.95;8.05;;;21.30;94.50;;;;;;5072910;28;20039;-66
2021/03/23 05:58:18;;;;;;;9.93;8.05;;;21.20;94.50;;;;;;5074436;28;20031;-64
2021/03/23 06:01:13;;;;;;;8.73;7.70;;;21.30;94.40;;;;;;5060078;28;20033;-61
2021/03/23 06:03:55;;;;;;;11.73;9.88;;;21.20;94.40;;;;;;5048454;28;20118;-59
2021/03/23 06:06:41;;;;;;;;;;;21.30;94.40;;;;;;5054672;28;20492;-64
2021/03/23 06:09:26;;;;;;;11.38;9.02;;;21.30;94.40;;;;;;5054518;28;19905;-57
2021/03/23 06:12:27;;;;;;;12.13;9.85;;;21.20;94.40;;;;;;5054148;28;20071;-65
2021/03/23 06:15:03;;;;;;;10.55;9.43;;;21.30;94.40;;;;;;5035560;28;20036;-65
2021/03/23 06:17:50;;;;;;;12.23;7.95;;;21.30;94.40;;;;;;5052563;28;20498;-63
2021/03/23 06:20:17;;;;;;;21.05;8.02;;;21.10;96.80;;;;;;5053448;28;20025;-59
2021/03/23 06:22:59;;;;;;;13.80;5.30;;;20.90;97.00;;;;;;5053356;28;20024;-61
2021/03/23 06:25:55;;;;;;;18.02;5.88;;;20.90;97.70;;;;;;5053481;28;20035;-62
2021/03/23 06:28:54;;;;;;;20.92;6.30;;;20.90;97.50;;;;;;5032368;28;20428;-59
2021/03/23 06:31:58;;;;;;;20.02;10.25;;;20.80;97.40;;;;;;5052900;28;20067;-59
2021/03/23 06:34:32;;;;;;;21.77;11.25;;;20.90;97.80;;;;;;5030461;28;20045;-64
2021/03/23 06:37:01;;;;;;;22.08;6.82;;;20.90;97.60;;;;;;5053234;28;20049;-62
2021/03/23 06:39:32;;;;;;;16.58;9.63;;;20.90;97.60;;;;;;5052653;28;20035;-59
2021/03/23 06:42:03;;;;;;;24.17;7.07;;;20.90;97.50;;;;;;5051819;28;20025;-61
2021/03/23 06:44:37;;;;;;;20.60;7.28;;;20.90;97.60;;;;;;5052113;28;20070;-60
2021/03/23 06:47:26;;;;;;;21.75;7.80;;;20.80;97.50;;;;;;5053409;28;20029;-62
2021/03/23 06:50:12;;;;;;;17.30;6.75;;;20.80;98.00;;;;;;5052998;28;20032;-59
2021/03/23 06:52:40;;;;;;;19.98;8.52;;;20.80;98.30;;;;;;5052847;28;20029;-63
2021/03/23 06:55:22;;;;;;;15.60;8.38;;;20.80;97.60;;;;;;5053099;28;20033;-62
2021/03/23 06:57:49;;;;;;;24.27;7.10;;;20.90;98.20;;;;;;5052695;28;20567;-64
2021/03/23 07:00:26;;;;;;;17.55;6.45;;;20.90;98.30;;;;;;5052962;28;20391;-63
2021/03/23 07:03:09;;;;;;;20.42;9.60;;;20.90;98.20;;;;;;5052792;28;20106;-64
2021/03/23 07:05:45;;;;;;;23.05;10.30;;;20.90;98.00;;;;;;5051929;28;20065;-60
2021/03/23 07:08:12;;;;;;;21.80;7.40;;;21.00;98.00;;;;;;5053117;28;20083;-60
2021/03/23 07:11:01;;;;;;;28.13;7.70;;;21.00;97.90;;;;;;5052607;28;20514;-62
2021/03/23 07:13:28;;;;;;;15.02;7.13;;;21.00;97.90;;;;;;5052132;28;20032;-62
2021/03/23 07:16:03;;;;;;;19.00;7.07;;;21.00;98.00;;;;;;5052214;28;20078;-61
2021/03/23 07:18:35;;;;;;;19.77;5.70;;;20.90;98.10;;;;;;5056757;28;20021;-60
2021/03/23 07:21:07;;;;;;;26.38;7.65;;;20.90;97.90;;;;;;5072864;28;20096;-62
2021/03/23 07:23:43;;;;;;;19.90;7.53;;;20.90;98.20;;;;;;5072620;28;20435;-57
2021/03/23 07:26:35;;;;;;;22.80;6.97;;;20.90;97.80;;;;;;5073475;28;20458;-60
2021/03/23 07:29:12;;;;;;;18.42;6.40;;;20.90;98.10;;;;;;5073374;28;20029;-62
2021/03/23 07:31:45;;;;;;;26.75;6.97;;;20.80;98.30;;;;;;5072630;28;20587;-59
2021/03/23 07:34:15;;;;;;;22.70;7.78;;;20.80;98.40;;;;;;5071702;28;20094;-61
2021/03/23 07:36:48;;;;;;;19.25;6.03;;;20.80;98.20;;;;;;5072247;28;20020;-62
2021/03/23 07:39:33;;;;;;;13.27;5.22;;;20.80;98.50;;;;;;5072098;28;20028;-60
2021/03/23 07:42:28;;;;;;;22.10;9.55;;;20.70;98.20;;;;;;5072091;28;20035;-59
2021/03/23 07:44:55;;;;;;;23.02;11.65;;;20.90;98.70;;;;;;5064601;28;20024;-62
2021/03/23 07:47:39;;;;;;;21.02;10.80;;;21.10;98.50;;;;;;5071941;28;20028;-64
2021/03/23 07:50:19;;;;;;;18.48;9.07;;;21.20;98.30;;;;;;5072084;28;20020;-66
2021/03/23 07:52:48;;;;;;;18.73;9.40;;;21.20;97.80;;;;;;5069920;28;20040;-61
2021/03/23 07:55:25;;;;;;;20.10;9.45;;;21.30;97.60;;;;;;5071702;28;20471;-60
2021/03/23 07:58:22;;;;;;;29.90;10.30;;;21.30;97.40;;;;;;5060808;28;20025;-63
2021/03/23 08:01:02;;;;;;;19.25;9.52;;;21.30;97.40;;;;;;5070118;28;20374;-55
2021/03/23 08:03:59;;;;;;;17.23;8.45;;;21.40;97.30;;;;;;5070082;28;20025;-64
2021/03/23 08:07:08;;;;;;;15.13;8.23;;;21.40;97.10;;;;;;5067145;28;20056;-57
2021/03/23 08:10:04;;;;;;;18.90;8.05;;;21.40;97.20;;;;;;5069063;28;20047;-58
2021/03/23 08:13:15;;;;;;;14.90;8.25;;;21.40;96.90;;;;;;5026043;28;20804;-65
2021/03/23 08:16:05;;;;;;;19.45;8.35;;;21.40;96.80;;;;;;4984685;28;20709;-64
2021/03/23 08:18:41;;;;;;;24.55;8.43;;;21.50;96.70;;;;;;5068199;28;20024;-62
2021/03/23 08:21:31;;;;;;;16.10;7.57;;;21.50;96.70;;;;;;5069243;28;20475;-60
2021/03/23 08:24:04;;;;;;;18.17;8.02;;;21.50;96.60;;;;;;5068798;28;20356;-59
2021/03/23 08:26:38;;;;;;;17.98;7.65;;;21.50;96.50;;;;;;5064990;28;20032;-64
2021/03/23 08:29:15;;;;;;;14.70;7.60;;;21.50;96.40;;;;;;5069665;28;20659;-61
2021/03/23 08:31:55;;;;;;;21.25;9.32;;;21.50;96.40;;;;;;5069353;28;20521;-59
2021/03/23 08:35:04;;;;;;;18.20;8.38;;;21.50;96.30;;;;;;5068649;28;20181;-61
2021/03/23 08:37:59;;;;;;;16.63;7.85;;;21.60;96.20;;;;;;5064211;28;20082;-60
2021/03/23 08:40:38;;;;;;;13.07;7.43;;;21.60;96.20;;;;;;5069457;28;20044;-64
2021/03/23 08:43:10;;;;;;;18.98;7.68;;;21.60;96.20;;;;;;5069165;28;20506;-61
2021/03/23 08:45:44;;;;;;;15.40;8.05;;;21.60;96.20;;;;;;5067508;28;20031;-60
2021/03/23 08:48:36;;;;;;;14.80;7.57;;;21.60;96.20;;;;;;5068106;28;20025;-64
2021/03/23 08:51:08;;;;;;;11.40;6.90;;;21.50;96.20;;;;;;5069341;28;20051;-64
2021/03/23 08:53:35;;;;;;;;;;;21.50;96.20;;;;;;5068079;28;20063;-64
2021/03/23 08:56:05;;;;;;;15.02;7.03;;;21.60;96.20;;;;;;5065344;28;19969;-62
2021/03/23 08:58:51;;;;;;;16.10;7.40;;;21.50;96.10;;;;;;5068799;28;20129;-63
2021/03/23 09:01:27;;;;;;;13.10;6.20;;;21.50;96.10;;;;;;5069754;28;20024;-64
2021/03/23 09:04:27;;;;;;;18.38;7.53;;;21.60;96.20;;;;;;5068781;28;20381;-62
2021/03/23 09:07:00;;;;;;;14.57;6.80;;;21.50;96.10;;;;;;5064267;28;20128;-62
2021/03/23 09:09:38;;;;;;;14.88;7.28;;;21.60;96.20;;;;;;5068955;28;20036;-64
2021/03/23 09:12:37;;;;;;;13.40;6.60;;;21.60;96.10;;;;;;5069551;28;20074;-61
2021/03/23 09:15:04;;;;;;;13.10;7.03;;;21.60;96.20;;;;;;5070125;28;20651;-64
2021/03/23 09:17:52;;;;;;;17.55;7.57;;;21.60;96.40;;;;;;5063526;28;20032;-62
2021/03/23 09:20:35;;;;;;;18.20;7.85;;;21.60;96.40;;;;;;5067939;28;20098;-61
2021/03/23 09:23:18;;;;;;;18.55;8.40;;;21.60;96.30;;;;;;5069022;28;20131;-56
2021/03/23 09:25:53;;;;;;;22.88;9.05;;;21.70;96.30;;;;;;5063981;28;20025;-60
2021/03/23 09:28:54;;;;;;;21.30;8.68;;;21.60;96.20;;;;;;5068710;28;20025;-62
2021/03/23 09:31:25;;;;;;;21.27;8.80;;;21.70;96.20;;;;;;5072106;28;20032;-62
2021/03/23 09:33:59;;;;;;;19.85;8.73;;;21.70;96.10;;;;;;5055036;28;20037;-62
2021/03/23 09:36:42;;;;;;;26.10;8.80;;;21.70;96.10;;;;;;5068413;28;20036;-62
2021/03/23 09:39:15;;;;;;;23.83;8.63;;;21.70;96.00;;;;;;5069745;28;20028;-64
2021/03/23 09:41:51;;;;;;;22.55;8.85;;;21.70;96.00;;;;;;5072388;28;20031;-61
2021/03/23 09:44:23;;;;;;;24.60;9.02;;;21.70;96.00;;;;;;5072966;28;20056;-62
2021/03/23 09:46:54;;;;;;;22.55;9.25;;;21.80;96.00;;;;;;5068325;28;20029;-60
2021/03/23 09:49:42;;;;;;;20.63;8.32;;;21.70;95.90;;;;;;5071283;28;20036;-62
2021/03/23 09:52:18;;;;;;;23.83;9.05;;;21.80;95.90;;;;;;5069970;28;20078;-60
2021/03/23 09:54:55;;;;;;;20.48;8.82;;;21.80;95.80;;;;;;5054988;28;20032;-63
2021/03/23 09:57:25;;;;;;;24.30;8.48;;;21.80;95.80;;;;;;5067236;28;20029;-61
2021/03/23 09:59:56;;;;;;;21.27;8.50;;;21.80;95.80;;;;;;5071795;28;20375;-61
2021/03/23 10:02:33;;;;;;;22.85;8.15;;;21.70;95.80;;;;;;5071993;28;20045;-63
2021/03/23 10:05:22;;;;;;;17.05;8.68;;;21.70;95.80;;;;;;5072392;28;20028;-63
2021/03/23 10:07:51;;;;;;;24.17;8.82;;;21.70;95.80;;;;;;5074434;28;20032;-59
2021/03/23 10:10:27;;;;;;;22.42;8.55;;;21.70;95.80;;;;;;5074272;28;20033;-62
2021/03/23 10:12:57;;;;;;;19.65;8.25;;;21.60;95.90;;;;;;5074287;28;20039;-58
2021/03/23 10:15:36;;;;;;;19.02;7.35;;;21.60;95.90;;;;;;5074279;28;20517;-61
2021/03/23 10:18:28;;;;;;;23.63;8.85;;;21.60;95.80;;;;;;5064064;28;20032;-61
2021/03/23 10:21:10;;;;;;;17.77;7.10;;;21.60;95.80;;;;;;5062565;28;20105;-61
2021/03/23 10:23:50;;;;;;;21.70;8.00;;;21.60;95.80;;;;;;5070380;28;20104;-60
2021/03/23 10:26:19;;;;;;;22.77;8.27;;;21.60;95.80;;;;;;5072841;28;20064;-61
2021/03/23 10:28:53;;;;;;;18.75;8.18;;;21.60;95.80;;;;;;5049752;28;20033;-61
2021/03/23 10:31:39;;;;;;;18.95;7.95;;;21.60;95.80;;;;;;5073023;28;20506;-63
2021/03/23 10:34:12;;;;;;;18.75;8.55;;;21.70;95.70;;;;;;5071389;28;20036;-67
2021/03/23 10:36:48;;;;;;;17.25;8.07;;;21.70;95.70;;;;;;5071355;28;20021;-52
2021/03/23 10:39:39;;;;;;;17.20;7.85;;;21.60;95.70;;;;;;5068205;28;20394;-58
2021/03/23 10:42:30;;;;;;;19.90;8.17;;;21.60;95.70;;;;;;5070928;28;20059;-61
2021/03/23 10:45:24;;;;;;;25.90;7.72;;;21.60;95.70;;;;;;5072854;28;20349;-67
2021/03/23 10:48:08;;;;;;;19.73;8.45;;;21.60;95.70;;;;;;5048855;28;20017;-59
2021/03/23 10:50:38;;;;;;;14.20;7.05;;;21.60;95.70;;;;;;5070924;28;20078;-64
2021/03/23 10:53:19;;;;;;;14.45;7.40;;;21.70;95.60;;;;;;5072454;28;20043;-52
2021/03/23 10:55:52;;;;;;;19.88;7.30;;;21.60;95.50;;;;;;5054517;28;20028;-57
2021/03/23 10:58:23;;;;;;;18.88;8.05;;;21.60;95.50;;;;;;5048242;28;20028;-63
2021/03/23 11:01:14;;;;;;;16.15;7.32;;;21.60;95.50;;;;;;5070380;28;20024;-66
2021/03/23 11:03:44;;;;;;;15.40;7.28;;;21.60;95.60;;;;;;5072264;28;20078;-60
2021/03/23 11:06:37;;;;;;;19.88;7.80;;;21.60;95.50;;;;;;5072382;28;20055;-55
2021/03/23 11:09:08;;;;;;;17.33;7.25;;;21.60;95.50;;;;;;5065916;28;20028;-57
2021/03/23 11:11:36;;;;;;;14.73;7.37;;;21.60;95.50;;;;;;5071531;28;20204;-59
2021/03/23 11:14:04;;;;;;;22.63;7.93;;;21.60;95.50;;;;;;5071446;28;20041;-55
2021/03/23 11:16:33;;;;;;;15.15;7.35;;;21.60;95.50;;;;;;5071999;28;20044;-59
2021/03/23 11:19:09;;;;;;;15.30;6.85;;;21.60;95.50;;;;;;5066398;28;20032;-62
2021/03/23 11:21:40;;;;;;;16.58;7.15;;;21.60;95.50;;;;;;5072151;28;20483;-64
2021/03/23 11:24:11;;;;;;;14.82;6.75;;;21.50;95.40;;;;;;5071484;28;20051;-55
2021/03/23 11:26:43;;;;;;;17.40;6.97;;;21.50;95.40;;;;;;5037693;28;20041;-61
2021/03/23 11:29:13;;;;;;;18.55;7.35;;;21.50;95.30;;;;;;5066565;28;20289;-61
2021/03/23 11:31:41;;;;;;;18.05;7.05;;;21.50;95.30;;;;;;5072095;28;20028;-60
2021/03/23 11:34:11;;;;;;;12.82;6.65;;;21.50;95.30;;;;;;5071287;28;20200;-61
2021/03/23 11:36:39;;;;;;;15.38;7.13;;;21.60;95.30;;;;;;5071828;28;20081;-61
2021/03/23 11:39:13;;;;;;;13.55;6.65;;;21.50;95.30;;;;;;5066253;28;20029;-60
2021/03/23 11:41:46;;;;;;;13.70;6.65;;;21.50;95.20;;;;;;5072497;28;20024;-61
2021/03/23 11:44:21;;;;;;;17.65;6.53;;;21.50;95.20;;;;;;5072712;28;20108;-60
2021/03/23 11:47:36;;;;;;;17.88;6.97;;;21.50;95.30;;;;;;5071374;28;20024;-59
2021/03/23 11:50:13;;;;;;;13.93;6.85;;;21.50;95.30;;;;;;4949162;29;20086;-62
2021/03/23 11:52:42;;;;;;;12.40;6.50;;;21.50;95.40;;;;;;5066365;28;20040;-62
2021/03/23 11:55:12;;;;;;;11.05;5.93;;;21.40;95.30;;;;;;5070744;28;20042;-60
2021/03/23 11:57:40;;;;;;;12.48;6.40;;;21.50;95.40;;;;;;5068798;28;20044;-61
2021/03/23 12:00:10;;;;;;;13.13;6.22;;;21.50;95.30;;;;;;5068658;28;20028;-60
2021/03/23 12:02:38;;;;;;;12.43;6.78;;;21.40;95.30;;;;;;5053130;28;20391;-65
2021/03/23 12:05:07;;;;;;;14.25;6.32;;;21.40;95.20;;;;;;5070597;28;20020;-61
2021/03/23 12:07:56;;;;;;;14.02;6.00;;;21.40;95.30;;;;;;5069965;28;20043;-60
2021/03/23 12:10:25;;;;;;;11.70;6.03;;;21.40;95.30;;;;;;5067792;28;20379;-59
2021/03/23 12:13:05;;;;;;;18.17;7.03;;;21.40;95.20;;;;;;5071397;28;20029;-60
2021/03/23 12:16:03;;;;;;;13.80;6.35;;;21.40;95.20;;;;;;5068814;28;20033;-61
2021/03/23 12:18:34;;;;;;;10.95;6.32;;;21.40;95.20;;;;;;5051231;28;20119;-60
2021/03/23 12:21:05;;;;;;;14.60;6.57;;;21.40;95.10;;;;;;5056246;28;20074;-62
2021/03/23 12:23:32;;;;;;;15.13;6.72;;;21.30;95.10;;;;;;5072013;28;20020;-62
2021/03/23 12:26:00;;;;;;;11.23;5.93;;;21.30;95.20;;;;;;5072102;28;20020;-60
2021/03/23 12:28:28;;;;;;;12.38;5.80;;;21.30;95.20;;;;;;5048105;28;20036;-61
2021/03/23 12:30:56;;;;;;;10.70;5.72;;;21.30;95.20;;;;;;5068552;28;20029;-60
2021/03/23 12:33:23;;;;;;;13.65;5.68;;;21.30;95.20;;;;;;5070195;28;20094;-60
2021/03/23 12:35:51;;;;;;;12.38;5.50;;;21.20;95.20;;;;;;5070035;28;20035;-60
2021/03/23 12:38:19;;;;;;;10.85;5.50;;;21.20;95.30;;;;;;5067032;28;20039;-60
2021/03/23 12:40:46;;;;;;;10.73;5.97;;;21.20;95.20;;;;;;5068362;28;20020;-59
2021/03/23 12:43:27;;;;;;;10.95;6.60;;;21.20;95.30;;;;;;5069896;28;20048;-59
2021/03/23 12:45:57;;;;;;;16.50;6.15;;;21.10;95.30;;;;;;5069696;28;20487;-59
2021/03/23 12:48:25;;;;;;;11.68;5.90;;;21.10;95.30;;;;;;5065939;28;20024;-61
2021/03/23 12:50:53;;;;;;;12.15;6.13;;;21.10;95.30;;;;;;5069612;28;20017;-59
2021/03/23 12:53:24;;;;;;;16.13;7.35;;;21.00;95.30;;;;;;5070151;28;20089;-60
2021/03/23 12:55:54;;;;;;;11.30;5.55;;;21.00;95.30;;;;;;5069803;28;20035;-59
2021/03/23 12:58:33;;;;;;;13.07;6.80;;;21.00;95.40;;;;;;5065891;28;20132;-61
2021/03/23 13:01:01;;;;;;;13.85;7.05;;;21.00;95.40;;;;;;5066615;28;20035;-60
2021/03/23 13:03:28;;;;;;;11.07;5.30;;;21.00;95.40;;;;;;5070387;28;20024;-60
2021/03/23 13:05:56;;;;;;;12.75;5.75;;;20.90;95.40;;;;;;5073334;28;20063;-60
2021/03/23 13:08:26;;;;;;;14.15;6.55;;;20.90;95.40;;;;;;5070151;28;20043;-60
2021/03/23 13:10:58;;;;;;;10.55;5.28;;;20.90;95.40;;;;;;5073630;28;20073;-58
2021/03/23 13:13:40;;;;;;;12.80;5.47;;;20.90;95.50;;;;;;5073640;28;20054;-60
2021/03/23 13:16:08;;;;;;;11.68;6.20;;;20.80;95.40;;;;;;5073630;28;20200;-60
2021/03/23 13:18:37;;;;;;;13.05;6.63;;;20.90;95.50;;;;;;5069311;28;20033;-60
2021/03/23 13:21:06;;;;;;;12.98;5.95;;;20.80;95.50;;;;;;5070294;28;20524;-61